Terminal Aerodrome Forecast
Issued by NWS

Home | Current Version | Previous Version | Graphics & Text | Print | Product List | Glossary On
Versions: 1 2 3 4 5 6 7 8 9 10 11 12 13 14 15 16 17
292
FTUS43 KMPX 061135
TAFRNH
TAF
KRNH 061135Z 0612/0712 23007KT P6SM OVC012
     FM061700 20010KT P6SM BKN060
     FM062300 21011KT P6SM OVC070 WS020/27040KT=

USA.gov is the U.S. government's official web portal to all federal, state and local government web resources and services.